Terminal Aerodrome Forecast
Issued by NWS Central Illinois

Home | Current Version | Previous Version | Text Only | Print | Product List | Glossary On
Versions: 1 2 3 4 5 6 7 8 9 10 11 12 13 14 15 16 17
000
FTUS43 KILX 262330
TAFSPI
TAF
KSPI 262330Z 2700/2724 25008KT P6SM VCTS SCT025CB BKN050
     FM270100 33005KT P6SM BKN050
     FM270800 VRB03KT 4SM BR SCT050
      TEMPO 2709/2713 2SM BR BKN008
     FM271500 06008KT P6SM SCT250
     FM271900 11008KT P6SM SCT025 BKN250=

USA.gov is the U.S. government's official web portal to all federal, state and local government web resources and services.